sensor_id;sensor_type;location;lat;lon;timestamp;temperature;humidity
49441;DHT22;35317;51.978;6.296;2023-02-22T00:01:31;9.00;99.90
49441;DHT22;35317;51.978;6.296;2023-02-22T00:06:35;9.00;99.90
49441;DHT22;35317;51.978;6.296;2023-02-22T00:11:35;8.90;99.90
49441;DHT22;35317;51.978;6.296;2023-02-22T00:16:37;8.90;99.90
49441;DHT22;35317;51.978;6.296;2023-02-22T00:21:38;8.90;99.90
49441;DHT22;35317;51.978;6.296;2023-02-22T00:26:39;8.90;99.90
49441;DHT22;35317;51.978;6.296;2023-02-22T00:31:40;8.80;99.90
49441;DHT22;35317;51.978;6.296;2023-02-22T00:36:45;8.70;99.90
49441;DHT22;35317;51.978;6.296;2023-02-22T00:41:46;8.70;99.90
49441;DHT22;35317;51.978;6.296;2023-02-22T00:46:48;8.70;99.90
49441;DHT22;35317;51.978;6.296;2023-02-22T00:51:49;8.70;99.90
49441;DHT22;35317;51.978;6.296;2023-02-22T00:56:50;8.70;99.90
49441;DHT22;35317;51.978;6.296;2023-02-22T01:01:51;8.60;99.90
49441;DHT22;35317;51.978;6.296;2023-02-22T01:06:52;8.60;99.90
49441;DHT22;35317;51.978;6.296;2023-02-22T01:11:54;8.60;99.90
49441;DHT22;35317;51.978;6.296;2023-02-22T01:16:56;8.60;99.90
49441;DHT22;35317;51.978;6.296;2023-02-22T01:21:56;8.60;99.90
49441;DHT22;35317;51.978;6.296;2023-02-22T01:26:58;8.60;99.90
49441;DHT22;35317;51.978;6.296;2023-02-22T01:31:58;8.50;99.90
49441;DHT22;35317;51.978;6.296;2023-02-22T01:37:01;8.50;99.90
49441;DHT22;35317;51.978;6.296;2023-02-22T01:42:02;8.50;99.90
49441;DHT22;35317;51.978;6.296;2023-02-22T01:47:04;8.50;99.90
49441;DHT22;35317;51.978;6.296;2023-02-22T01:52:12;8.50;99.90
49441;DHT22;35317;51.978;6.296;2023-02-22T01:57:30;8.40;99.90
49441;DHT22;35317;51.978;6.296;2023-02-22T02:02:32;8.40;99.90
49441;DHT22;35317;51.978;6.296;2023-02-22T02:07:34;8.40;99.90
49441;DHT22;35317;51.978;6.296;2023-02-22T02:12:36;8.30;99.90
49441;DHT22;35317;51.978;6.296;2023-02-22T02:17:37;8.30;99.90
49441;DHT22;35317;51.978;6.296;2023-02-22T02:22:56;8.30;99.90
49441;DHT22;35317;51.978;6.296;2023-02-22T02:28:25;8.20;99.90
49441;DHT22;35317;51.978;6.296;2023-02-22T02:33:50;8.20;99.90
49441;DHT22;35317;51.978;6.296;2023-02-22T02:39:17;8.20;99.90
49441;DHT22;35317;51.978;6.296;2023-02-22T02:44:41;8.20;99.90
49441;DHT22;35317;51.978;6.296;2023-02-22T02:50:13;8.20;99.90
49441;DHT22;35317;51.978;6.296;2023-02-22T02:55:17;8.20;99.90
49441;DHT22;35317;51.978;6.296;2023-02-22T03:00:22;8.20;99.90
49441;DHT22;35317;51.978;6.296;2023-02-22T03:05:46;8.20;99.90
49441;DHT22;35317;51.978;6.296;2023-02-22T03:11:26;8.20;99.90
49441;DHT22;35317;51.978;6.296;2023-02-22T03:16:45;8.20;99.90
49441;DHT22;35317;51.978;6.296;2023-02-22T03:22:11;8.20;99.90
49441;DHT22;35317;51.978;6.296;2023-02-22T03:27:25;8.20;99.90
49441;DHT22;35317;51.978;6.296;2023-02-22T03:32:38;8.10;99.90
49441;DHT22;35317;51.978;6.296;2023-02-22T03:37:44;8.20;99.90
49441;DHT22;35317;51.978;6.296;2023-02-22T03:42:49;8.10;99.90
49441;DHT22;35317;51.978;6.296;2023-02-22T03:48:03;8.10;99.90
49441;DHT22;35317;51.978;6.296;2023-02-22T03:53:09;8.10;99.90
49441;DHT22;35317;51.978;6.296;2023-02-22T03:58:12;8.10;99.90
49441;DHT22;35317;51.978;6.296;2023-02-22T04:03:13;8.10;99.90
49441;DHT22;35317;51.978;6.296;2023-02-22T04:08:15;8.10;99.90
49441;DHT22;35317;51.978;6.296;2023-02-22T04:13:16;8.00;99.90
49441;DHT22;35317;51.978;6.296;2023-02-22T04:18:16;8.00;99.90
49441;DHT22;35317;51.978;6.296;2023-02-22T04:23:17;7.90;99.90
49441;DHT22;35317;51.978;6.296;2023-02-22T04:28:18;7.90;99.90
49441;DHT22;35317;51.978;6.296;2023-02-22T04:33:19;7.90;99.90
49441;DHT22;35317;51.978;6.296;2023-02-22T04:38:20;7.80;99.90
49441;DHT22;35317;51.978;6.296;2023-02-22T04:43:21;7.80;99.90
49441;DHT22;35317;51.978;6.296;2023-02-22T04:48:21;7.80;99.90
49441;DHT22;35317;51.978;6.296;2023-02-22T04:53:22;7.70;99.90
49441;DHT22;35317;51.978;6.296;2023-02-22T04:58:23;7.70;99.90
49441;DHT22;35317;51.978;6.296;2023-02-22T05:03:24;7.70;99.90
49441;DHT22;35317;51.978;6.296;2023-02-22T05:08:24;7.70;99.90
49441;DHT22;35317;51.978;6.296;2023-02-22T05:13:25;7.60;99.90
49441;DHT22;35317;51.978;6.296;2023-02-22T05:18:26;7.60;99.90
49441;DHT22;35317;51.978;6.296;2023-02-22T05:23:26;7.60;99.90
49441;DHT22;35317;51.978;6.296;2023-02-22T05:28:27;7.60;99.90
49441;DHT22;35317;51.978;6.296;2023-02-22T05:33:28;7.60;99.90
49441;DHT22;35317;51.978;6.296;2023-02-22T05:38:29;7.60;99.90
49441;DHT22;35317;51.978;6.296;2023-02-22T05:43:29;7.60;99.90
49441;DHT22;35317;51.978;6.296;2023-02-22T05:48:30;7.60;99.90
49441;DHT22;35317;51.978;6.296;2023-02-22T05:53:31;7.50;99.90
49441;DHT22;35317;51.978;6.296;2023-02-22T05:58:32;7.60;99.90
49441;DHT22;35317;51.978;6.296;2023-02-22T06:03:33;7.60;99.90
49441;DHT22;35317;51.978;6.296;2023-02-22T06:08:33;7.60;99.90
49441;DHT22;35317;51.978;6.296;2023-02-22T06:13:35;7.60;99.90
49441;DHT22;35317;51.978;6.296;2023-02-22T06:18:36;7.60;99.90
49441;DHT22;35317;51.978;6.296;2023-02-22T06:23:36;7.60;99.90
49441;DHT22;35317;51.978;6.296;2023-02-22T06:28:37;7.60;99.90
49441;DHT22;35317;51.978;6.296;2023-02-22T06:33:38;7.50;99.90
49441;DHT22;35317;51.978;6.296;2023-02-22T06:38:41;7.60;99.90
49441;DHT22;35317;51.978;6.296;2023-02-22T06:43:42;7.60;99.90
49441;DHT22;35317;51.978;6.296;2023-02-22T06:48:43;7.60;99.90
49441;DHT22;35317;51.978;6.296;2023-02-22T06:53:51;7.60;99.90
49441;DHT22;35317;51.978;6.296;2023-02-22T06:58:55;7.60;99.90
49441;DHT22;35317;51.978;6.296;2023-02-22T07:03:56;7.60;99.90
49441;DHT22;35317;51.978;6.296;2023-02-22T07:08:56;7.60;99.90
49441;DHT22;35317;51.978;6.296;2023-02-22T07:13:57;7.60;99.90
49441;DHT22;35317;51.978;6.296;2023-02-22T07:18:58;7.60;99.90
49441;DHT22;35317;51.978;6.296;2023-02-22T07:24:02;7.60;99.90
49441;DHT22;35317;51.978;6.296;2023-02-22T07:29:03;7.70;99.90
49441;DHT22;35317;51.978;6.296;2023-02-22T07:34:04;7.70;99.90
49441;DHT22;35317;51.978;6.296;2023-02-22T07:39:04;7.70;99.90
49441;DHT22;35317;51.978;6.296;2023-02-22T07:44:08;7.70;99.90
49441;DHT22;35317;51.978;6.296;2023-02-22T07:49:08;7.70;99.90
49441;DHT22;35317;51.978;6.296;2023-02-22T07:54:09;7.70;99.90
49441;DHT22;35317;51.978;6.296;2023-02-22T07:59:10;7.80;99.90
49441;DHT22;35317;51.978;6.296;2023-02-22T08:04:11;7.80;99.90
49441;DHT22;35317;51.978;6.296;2023-02-22T08:09:11;7.80;99.90
49441;DHT22;35317;51.978;6.296;2023-02-22T08:14:15;7.80;99.90
49441;DHT22;35317;51.978;6.296;2023-02-22T08:19:15;7.90;99.90
49441;DHT22;35317;51.978;6.296;2023-02-22T08:24:16;8.00;99.90
49441;DHT22;35317;51.978;6.296;2023-02-22T08:29:17;8.00;99.90
49441;DHT22;35317;51.978;6.296;2023-02-22T08:34:18;8.10;99.90
49441;DHT22;35317;51.978;6.296;2023-02-22T08:39:19;8.10;99.90
49441;DHT22;35317;51.978;6.296;2023-02-22T08:44:20;8.10;99.90
49441;DHT22;35317;51.978;6.296;2023-02-22T08:49:23;8.20;99.90
49441;DHT22;35317;51.978;6.296;2023-02-22T08:54:24;8.20;99.90
49441;DHT22;35317;51.978;6.296;2023-02-22T08:59:25;8.20;99.90
49441;DHT22;35317;51.978;6.296;2023-02-22T09:04:26;8.30;99.90
49441;DHT22;35317;51.978;6.296;2023-02-22T09:09:27;8.30;99.90
49441;DHT22;35317;51.978;6.296;2023-02-22T09:14:28;8.40;99.90
49441;DHT22;35317;51.978;6.296;2023-02-22T09:19:29;8.40;99.90
49441;DHT22;35317;51.978;6.296;2023-02-22T09:24:30;8.50;99.90
49441;DHT22;35317;51.978;6.296;2023-02-22T09:29:30;8.60;99.90
49441;DHT22;35317;51.978;6.296;2023-02-22T09:34:31;8.60;99.90
49441;DHT22;35317;51.978;6.296;2023-02-22T09:39:34;8.70;99.90
49441;DHT22;35317;51.978;6.296;2023-02-22T09:44:40;8.80;99.90
49441;DHT22;35317;51.978;6.296;2023-02-22T09:49:57;8.90;99.90
49441;DHT22;35317;51.978;6.296;2023-02-22T10:00:36;9.30;99.90
49441;DHT22;35317;51.978;6.296;2023-02-22T10:05:44;9.40;99.90
49441;DHT22;35317;51.978;6.296;2023-02-22T10:22:02;9.90;99.90
49441;DHT22;35317;51.978;6.296;2023-02-22T10:27:18;10.00;99.90
49441;DHT22;35317;51.978;6.296;2023-02-22T10:32:27;10.00;99.90
49441;DHT22;35317;51.978;6.296;2023-02-22T10:37:33;10.00;99.90
49441;DHT22;35317;51.978;6.296;2023-02-22T10:42:34;10.00;99.90
49441;DHT22;35317;51.978;6.296;2023-02-22T10:47:35;10.10;99.90
49441;DHT22;35317;51.978;6.296;2023-02-22T10:52:37;10.10;99.90
49441;DHT22;35317;51.978;6.296;2023-02-22T10:57:37;10.20;99.90
49441;DHT22;35317;51.978;6.296;2023-02-22T11:02:58;10.40;99.90
49441;DHT22;35317;51.978;6.296;2023-02-22T11:08:26;10.50;99.90
49441;DHT22;35317;51.978;6.296;2023-02-22T11:13:36;10.60;99.90
49441;DHT22;35317;51.978;6.296;2023-02-22T11:18:38;10.90;99.90
49441;DHT22;35317;51.978;6.296;2023-02-22T11:23:41;11.00;99.90
49441;DHT22;35317;51.978;6.296;2023-02-22T11:28:47;11.10;99.90
49441;DHT22;35317;51.978;6.296;2023-02-22T11:33:53;11.20;99.90
49441;DHT22;35317;51.978;6.296;2023-02-22T11:38:55;11.40;99.90
49441;DHT22;35317;51.978;6.296;2023-02-22T11:44:31;11.60;99.90
49441;DHT22;35317;51.978;6.296;2023-02-22T11:49:37;11.80;99.90
49441;DHT22;35317;51.978;6.296;2023-02-22T12:00:47;12.20;99.90
49441;DHT22;35317;51.978;6.296;2023-02-22T12:17:08;12.80;99.90
49441;DHT22;35317;51.978;6.296;2023-02-22T12:22:30;12.90;99.90
49441;DHT22;35317;51.978;6.296;2023-02-22T12:27:45;13.10;99.90
49441;DHT22;35317;51.978;6.296;2023-02-22T12:32:49;13.20;99.90
49441;DHT22;35317;51.978;6.296;2023-02-22T12:38:20;13.30;99.90
49441;DHT22;35317;51.978;6.296;2023-02-22T12:43:45;13.50;99.30
49441;DHT22;35317;51.978;6.296;2023-02-22T12:49:15;13.70;99.20
49441;DHT22;35317;51.978;6.296;2023-02-22T12:54:47;13.90;98.60
49441;DHT22;35317;51.978;6.296;2023-02-22T12:59:58;14.10;98.30
49441;DHT22;35317;51.978;6.296;2023-02-22T13:05:02;14.40;98.00
49441;DHT22;35317;51.978;6.296;2023-02-22T13:15:28;14.80;96.60
49441;DHT22;35317;51.978;6.296;2023-02-22T13:26:24;15.00;94.80
49441;DHT22;35317;51.978;6.296;2023-02-22T13:54:47;15.10;94.10
49441;DHT22;35317;51.978;6.296;2023-02-22T14:10:46;14.70;92.80
49441;DHT22;35317;51.978;6.296;2023-02-22T14:26:23;14.50;93.00
49441;DHT22;35317;51.978;6.296;2023-02-22T14:58:20;14.40;93.10
49441;DHT22;35317;51.978;6.296;2023-02-22T15:03:30;14.20;93.20
49441;DHT22;35317;51.978;6.296;2023-02-22T15:08:37;14.10;93.20
49441;DHT22;35317;51.978;6.296;2023-02-22T15:13:52;14.00;93.30
49441;DHT22;35317;51.978;6.296;2023-02-22T15:18:56;13.90;93.50
49441;DHT22;35317;51.978;6.296;2023-02-22T15:24:06;13.80;93.40
49441;DHT22;35317;51.978;6.296;2023-02-22T15:29:18;13.80;93.50
49441;DHT22;35317;51.978;6.296;2023-02-22T15:34:28;13.70;93.60
49441;DHT22;35317;51.978;6.296;2023-02-22T15:39:32;13.60;93.80
49441;DHT22;35317;51.978;6.296;2023-02-22T15:44:35;13.60;93.70
49441;DHT22;35317;51.978;6.296;2023-02-22T15:49:39;13.50;93.80
49441;DHT22;35317;51.978;6.296;2023-02-22T15:54:46;13.40;94.00
49441;DHT22;35317;51.978;6.296;2023-02-22T15:59:56;13.40;94.10
49441;DHT22;35317;51.978;6.296;2023-02-22T16:05:03;13.30;94.40
49441;DHT22;35317;51.978;6.296;2023-02-22T16:10:07;13.20;94.50
49441;DHT22;35317;51.978;6.296;2023-02-22T16:15:17;13.10;94.90
49441;DHT22;35317;51.978;6.296;2023-02-22T16:25:30;12.90;96.00
49441;DHT22;35317;51.978;6.296;2023-02-22T16:30:37;12.80;96.50
49441;DHT22;35317;51.978;6.296;2023-02-22T16:35:39;12.70;96.80
49441;DHT22;35317;51.978;6.296;2023-02-22T16:40:54;12.50;97.30
49441;DHT22;35317;51.978;6.296;2023-02-22T16:45:55;12.30;98.00
49441;DHT22;35317;51.978;6.296;2023-02-22T16:51:00;12.20;98.50
49441;DHT22;35317;51.978;6.296;2023-02-22T16:56:08;12.00;99.10
49441;DHT22;35317;51.978;6.296;2023-02-22T17:01:09;11.90;99.70
49441;DHT22;35317;51.978;6.296;2023-02-22T17:06:12;11.80;99.90
49441;DHT22;35317;51.978;6.296;2023-02-22T17:11:13;11.70;99.90
49441;DHT22;35317;51.978;6.296;2023-02-22T17:16:14;11.60;99.90
49441;DHT22;35317;51.978;6.296;2023-02-22T17:21:14;11.50;99.90
49441;DHT22;35317;51.978;6.296;2023-02-22T17:26:16;11.40;99.90
49441;DHT22;35317;51.978;6.296;2023-02-22T17:31:21;11.30;99.90
49441;DHT22;35317;51.978;6.296;2023-02-22T17:36:23;11.30;99.90
49441;DHT22;35317;51.978;6.296;2023-02-22T17:41:24;11.30;99.90
49441;DHT22;35317;51.978;6.296;2023-02-22T17:46:25;11.20;99.90
49441;DHT22;35317;51.978;6.296;2023-02-22T17:51:26;11.10;99.90
49441;DHT22;35317;51.978;6.296;2023-02-22T17:56:27;11.10;99.90
49441;DHT22;35317;51.978;6.296;2023-02-22T18:01:30;11.10;99.90
49441;DHT22;35317;51.978;6.296;2023-02-22T18:06:32;11.00;99.90
49441;DHT22;35317;51.978;6.296;2023-02-22T18:11:32;11.00;99.90
49441;DHT22;35317;51.978;6.296;2023-02-22T18:16:33;11.00;99.90
49441;DHT22;35317;51.978;6.296;2023-02-22T18:21:35;11.00;99.90
49441;DHT22;35317;51.978;6.296;2023-02-22T18:26:36;10.90;99.90
49441;DHT22;35317;51.978;6.296;2023-02-22T18:31:38;10.90;99.90
49441;DHT22;35317;51.978;6.296;2023-02-22T18:36:38;10.90;99.90
49441;DHT22;35317;51.978;6.296;2023-02-22T18:41:39;10.90;99.90
49441;DHT22;35317;51.978;6.296;2023-02-22T18:46:40;10.80;99.90
49441;DHT22;35317;51.978;6.296;2023-02-22T18:51:42;10.80;99.90
49441;DHT22;35317;51.978;6.296;2023-02-22T18:56:45;10.80;99.90
49441;DHT22;35317;51.978;6.296;2023-02-22T19:01:46;10.70;99.90
49441;DHT22;35317;51.978;6.296;2023-02-22T19:06:48;10.70;99.90
49441;DHT22;35317;51.978;6.296;2023-02-22T19:11:49;10.70;99.90
49441;DHT22;35317;51.978;6.296;2023-02-22T19:16:51;10.70;99.90
49441;DHT22;35317;51.978;6.296;2023-02-22T19:21:52;10.60;99.90
49441;DHT22;35317;51.978;6.296;2023-02-22T19:26:55;10.60;99.90
49441;DHT22;35317;51.978;6.296;2023-02-22T19:31:59;10.50;99.90
49441;DHT22;35317;51.978;6.296;2023-02-22T19:37:00;10.50;99.90
49441;DHT22;35317;51.978;6.296;2023-02-22T19:42:00;10.40;99.90
49441;DHT22;35317;51.978;6.296;2023-02-22T19:47:04;10.40;99.90
49441;DHT22;35317;51.978;6.296;2023-02-22T19:52:09;10.40;99.90
49441;DHT22;35317;51.978;6.296;2023-02-22T19:57:10;10.40;99.90
49441;DHT22;35317;51.978;6.296;2023-02-22T20:02:11;10.30;99.90
49441;DHT22;35317;51.978;6.296;2023-02-22T20:07:12;10.30;99.90
49441;DHT22;35317;51.978;6.296;2023-02-22T20:12:13;10.40;99.90
49441;DHT22;35317;51.978;6.296;2023-02-22T20:17:13;10.30;99.90
49441;DHT22;35317;51.978;6.296;2023-02-22T20:22:14;10.30;99.90
49441;DHT22;35317;51.978;6.296;2023-02-22T20:27:15;10.30;99.90
49441;DHT22;35317;51.978;6.296;2023-02-22T20:32:16;10.30;99.90
49441;DHT22;35317;51.978;6.296;2023-02-22T20:37:16;10.30;99.90
49441;DHT22;35317;51.978;6.296;2023-02-22T20:42:17;10.30;99.90
49441;DHT22;35317;51.978;6.296;2023-02-22T20:47:19;10.30;99.90
49441;DHT22;35317;51.978;6.296;2023-02-22T20:52:20;10.30;99.90
49441;DHT22;35317;51.978;6.296;2023-02-22T20:57:21;10.20;99.90
49441;DHT22;35317;51.978;6.296;2023-02-22T21:02:21;10.20;99.90
49441;DHT22;35317;51.978;6.296;2023-02-22T21:07:22;10.20;99.90
49441;DHT22;35317;51.978;6.296;2023-02-22T21:12:23;10.20;99.90
49441;DHT22;35317;51.978;6.296;2023-02-22T21:17:24;10.30;99.90
49441;DHT22;35317;51.978;6.296;2023-02-22T21:22:30;10.30;99.90
49441;DHT22;35317;51.978;6.296;2023-02-22T21:27:31;10.30;99.90
49441;DHT22;35317;51.978;6.296;2023-02-22T21:32:32;10.30;99.90
49441;DHT22;35317;51.978;6.296;2023-02-22T21:37:33;10.30;99.90
49441;DHT22;35317;51.978;6.296;2023-02-22T21:42:34;10.30;99.90
49441;DHT22;35317;51.978;6.296;2023-02-22T21:47:35;10.30;99.90
49441;DHT22;35317;51.978;6.296;2023-02-22T21:52:36;10.30;99.90
49441;DHT22;35317;51.978;6.296;2023-02-22T21:57:36;10.30;99.90
49441;DHT22;35317;51.978;6.296;2023-02-22T22:02:37;10.30;99.90
49441;DHT22;35317;51.978;6.296;2023-02-22T22:07:38;10.30;99.90
49441;DHT22;35317;51.978;6.296;2023-02-22T22:12:40;10.30;99.90
49441;DHT22;35317;51.978;6.296;2023-02-22T22:17:45;10.30;99.90
49441;DHT22;35317;51.978;6.296;2023-02-22T22:22:46;10.20;99.90
49441;DHT22;35317;51.978;6.296;2023-02-22T22:27:47;10.30;99.90
49441;DHT22;35317;51.978;6.296;2023-02-22T22:32:47;10.30;99.90
49441;DHT22;35317;51.978;6.296;2023-02-22T22:37:48;10.20;99.90
49441;DHT22;35317;51.978;6.296;2023-02-22T22:42:50;10.20;99.90
49441;DHT22;35317;51.978;6.296;2023-02-22T22:47:51;10.20;99.90
49441;DHT22;35317;51.978;6.296;2023-02-22T22:52:52;10.20;99.90
49441;DHT22;35317;51.978;6.296;2023-02-22T22:57:54;10.20;99.90
49441;DHT22;35317;51.978;6.296;2023-02-22T23:02:55;10.20;99.90
49441;DHT22;35317;51.978;6.296;2023-02-22T23:07:56;10.20;99.90
49441;DHT22;35317;51.978;6.296;2023-02-22T23:12:57;10.20;99.90
49441;DHT22;35317;51.978;6.296;2023-02-22T23:17:58;10.20;99.90
49441;DHT22;35317;51.978;6.296;2023-02-22T23:22:58;10.20;99.90
49441;DHT22;35317;51.978;6.296;2023-02-22T23:28:02;10.20;99.90
49441;DHT22;35317;51.978;6.296;2023-02-22T23:33:02;10.10;99.90
49441;DHT22;35317;51.978;6.296;2023-02-22T23:38:03;10.10;99.90
49441;DHT22;35317;51.978;6.296;2023-02-22T23:43:06;10.10;99.90
49441;DHT22;35317;51.978;6.296;2023-02-22T23:48:11;10.10;99.90
49441;DHT22;35317;51.978;6.296;2023-02-22T23:53:11;10.10;99.90
49441;DHT22;35317;51.978;6.296;2023-02-22T23:58:14;10.10;99.90
